Time;durP1;ratioP1;P1;durP2;ratioP2;P2;SDS_P1;SDS_P2;PMS_P1;PMS_P2;Temp;Humidity;BMP_temperature;BMP_pressure;BME280_temperature;BME280_humidity;BME280_pressure;Samples;Min_cycle;Max_cycle;Signal;HPM_P1;HPM_P2
2022/09/27 00:00:50;;;;;;;10.88;1.98;;;11.30;99.90;;;10.49;100.00;100617.34;5072506;23;20010;-73
2022/09/27 00:02:51;;;;;;;7.60;2.78;;;11.30;99.90;;;10.46;100.00;100614.19;5072714;23;20005;-72
2022/09/27 00:04:52;;;;;;;15.27;2.70;;;11.30;99.90;;;10.52;100.00;100611.75;5098366;23;20453;-72
2022/09/27 00:06:53;;;;;;;9.40;2.25;;;11.30;99.90;;;10.39;100.00;100606.09;5048173;23;20010;-72
2022/09/27 00:08:54;;;;;;;12.40;2.55;;;11.20;99.90;;;10.38;100.00;100604.44;5072420;23;20107;-72
2022/09/27 00:11:01;;;;;;;10.35;2.47;;;11.20;99.90;;;10.34;100.00;100610.19;5098374;23;20012;-72
2022/09/27 00:13:02;;;;;;;10.70;1.73;;;11.20;99.90;;;10.26;100.00;100613.63;5072262;23;20001;-72
2022/09/27 00:15:05;;;;;;;7.47;2.05;;;11.10;99.90;;;10.31;100.00;100619.22;5098471;23;20002;-72
2022/09/27 00:17:06;;;;;;;13.85;3.03;;;11.10;99.90;;;10.28;100.00;100621.34;5072489;23;20002;-73
2022/09/27 00:19:14;;;;;;;8.65;1.95;;;11.10;99.90;;;10.23;100.00;100621.00;5098288;23;20020;-72
2022/09/27 00:21:15;;;;;;;11.55;1.83;;;11.00;99.90;;;10.21;100.00;100628.25;5098508;23;20434;-72
2022/09/27 00:23:16;;;;;;;12.63;2.28;;;11.00;99.90;;;10.15;100.00;100628.88;5098774;23;20066;-73
2022/09/27 00:25:17;;;;;;;11.75;2.15;;;11.00;99.90;;;10.20;100.00;100631.88;5047766;23;20014;-73
2022/09/27 00:27:18;;;;;;;10.85;2.20;;;11.00;99.90;;;10.15;100.00;100632.34;5097850;23;20061;-73
2022/09/27 00:29:20;;;;;;;10.23;2.58;;;11.00;99.90;;;10.08;100.00;100633.06;5098136;23;20009;-72
2022/09/27 00:31:28;;;;;;;9.27;1.88;;;10.90;99.90;;;10.07;100.00;100634.03;5072379;23;20466;-73
2022/09/27 00:33:29;;;;;;;17.40;2.25;;;10.90;99.90;;;10.10;100.00;100631.94;5098448;23;20031;-73
2022/09/27 00:35:30;;;;;;;12.05;2.17;;;10.90;99.90;;;10.11;100.00;100636.22;5098049;23;20056;-72
2022/09/27 00:37:31;;;;;;;10.63;2.70;;;10.90;99.90;;;10.09;100.00;100634.75;5098195;23;20009;-72
2022/09/27 00:39:32;;;;;;;19.25;3.60;;;10.90;99.90;;;10.03;100.00;100642.25;5098254;23;20319;-72
2022/09/27 00:41:35;;;;;;;15.10;3.10;;;10.90;99.90;;;10.00;100.00;100653.09;5072040;23;20013;-72
2022/09/27 00:43:55;;;;;;;8.20;1.30;;;10.90;99.90;;;9.94;100.00;100652.94;5098515;23;20005;-72
2022/09/27 00:46:01;;;;;;;14.43;2.33;;;10.80;99.90;;;9.90;100.00;100649.75;5072724;23;20013;-72
2022/09/27 00:48:04;;;;;;;12.57;2.05;;;10.80;99.90;;;9.89;100.00;100650.72;5049355;23;20121;-72
2022/09/27 00:50:34;;;;;;;6.45;2.20;;;10.80;99.90;;;9.92;100.00;100654.88;5047865;23;20093;-72
2022/09/27 00:52:48;;;;;;;11.65;2.17;;;10.80;99.90;;;9.98;100.00;100663.00;5075491;23;20342;-73
2022/09/27 00:54:56;;;;;;;15.45;2.53;;;10.80;99.90;;;10.04;100.00;100661.53;5074566;23;20456;-73
2022/09/27 00:56:58;;;;;;;13.55;2.10;;;10.80;99.90;;;10.13;100.00;100662.41;5072735;23;20372;-72
2022/09/27 00:59:09;;;;;;;12.60;2.95;;;10.90;99.90;;;10.15;100.00;100665.78;5072494;23;20362;-72
2022/09/27 01:01:12;;;;;;;14.38;2.17;;;11.00;99.90;;;10.17;100.00;100661.16;5097935;23;20012;-73
2022/09/27 01:03:37;;;;;;;13.43;2.90;;;11.00;99.90;;;10.27;100.00;100669.81;5048523;23;20007;-72
2022/09/27 01:05:39;;;;;;;12.20;2.63;;;11.10;99.90;;;10.28;100.00;100672.28;5072961;23;20093;-73
2022/09/27 01:07:41;;;;;;;16.80;2.42;;;11.10;99.90;;;10.35;100.00;100677.75;5072641;23;20037;-72
2022/09/27 01:09:42;;;;;;;11.40;2.65;;;11.10;99.90;;;10.39;100.00;100672.00;5098057;23;20005;-72
2022/09/27 01:11:52;;;;;;;9.95;1.63;;;11.20;99.90;;;10.46;100.00;100680.13;5072268;23;20060;-72
2022/09/27 01:14:18;;;;;;;11.85;2.13;;;11.20;99.90;;;10.53;100.00;100670.59;5073369;23;20010;-72
2022/09/27 01:16:40;;;;;;;10.43;2.13;;;11.30;99.90;;;10.63;100.00;100671.31;5099646;23;20002;-72
2022/09/27 01:19:29;;;;;;;15.38;3.05;;;11.40;99.90;;;10.60;100.00;100670.81;5075934;23;20006;-73
2022/09/27 01:21:40;;;;;;;13.75;2.85;;;11.40;99.90;;;10.65;100.00;100684.34;5022033;23;20010;-72
2022/09/27 01:24:05;;;;;;;13.93;2.80;;;11.40;99.90;;;10.60;100.00;100671.63;5099776;23;20304;-72
2022/09/27 01:26:47;;;;;;;13.95;1.83;;;11.40;99.90;;;10.72;100.00;100669.53;5099616;23;20005;-73
2022/09/27 01:29:12;;;;;;;13.63;2.63;;;11.40;99.90;;;10.66;100.00;100673.66;5099367;23;20088;-73
2022/09/27 01:31:25;;;;;;;10.60;2.20;;;11.50;99.90;;;10.66;100.00;100671.00;5073387;23;20034;-73
2022/09/27 01:34:10;;;;;;;6.70;1.75;;;11.40;99.90;;;10.56;100.00;100665.03;5099454;23;20025;-72
2022/09/27 01:36:51;;;;;;;12.52;1.90;;;11.40;99.90;;;10.46;100.00;100659.84;5020722;23;20089;-73
2022/09/27 01:39:21;;;;;;;7.05;1.80;;;11.30;99.90;;;10.39;100.00;100663.28;5048124;23;20041;-73
2022/09/27 01:41:42;;;;;;;11.23;2.08;;;11.30;99.90;;;10.34;100.00;100671.66;5075046;23;20005;-73
2022/09/27 01:44:17;;;;;;;14.07;2.45;;;11.20;99.90;;;10.28;100.00;100661.72;5075242;23;20427;-72
2022/09/27 01:46:33;;;;;;;13.55;1.90;;;11.10;99.90;;;10.20;100.00;100645.03;5050610;23;20014;-73
2022/09/27 01:48:45;;;;;;;8.25;2.00;;;11.10;99.90;;;10.21;100.00;100655.44;5073875;23;20006;-72
2022/09/27 01:51:07;;;;;;;11.18;1.70;;;11.00;99.90;;;10.23;100.00;100650.84;5073547;23;20010;-72
2022/09/27 01:53:28;;;;;;;11.57;2.67;;;11.00;99.90;;;10.27;100.00;100638.16;5073248;23;20006;-72
2022/09/27 01:55:34;;;;;;;11.15;1.80;;;11.10;99.90;;;10.33;100.00;100648.94;5073181;23;20018;-73
2022/09/27 01:57:42;;;;;;;11.10;2.00;;;11.10;99.90;;;10.40;100.00;100654.38;5048925;23;20002;-72
2022/09/27 01:59:53;;;;;;;12.80;2.70;;;11.10;99.90;;;10.35;100.00;100651.38;5073369;23;20093;-72
2022/09/27 02:02:00;;;;;;;12.55;2.22;;;11.20;99.90;;;10.40;100.00;100660.47;5049592;23;20010;-73
2022/09/27 02:04:04;;;;;;;12.30;2.72;;;11.20;99.90;;;10.36;100.00;100660.97;5074836;23;20029;-73
2022/09/27 02:06:14;;;;;;;6.93;1.38;;;11.20;99.90;;;10.33;100.00;100664.75;5049371;23;20017;-73
2022/09/27 02:08:58;;;;;;;6.95;1.77;;;11.20;99.90;;;10.29;100.00;100659.94;5074788;23;20077;-73
2022/09/27 02:11:05;;;;;;;11.20;3.40;;;11.10;99.90;;;10.25;100.00;100643.59;5064046;23;20010;-73
2022/09/27 02:13:18;;;;;;;10.43;1.65;;;11.10;99.90;;;10.21;100.00;100650.19;5049107;23;20467;-72
2022/09/27 02:15:20;;;;;;;6.68;1.75;;;11.00;99.90;;;10.17;100.00;100653.25;5074855;23;20001;-72
2022/09/27 02:17:42;;;;;;;6.68;2.10;;;11.00;99.90;;;10.14;100.00;100648.31;5073253;23;20009;-73
2022/09/27 02:20:10;;;;;;;6.90;1.50;;;10.90;99.90;;;10.17;100.00;100642.72;5074690;23;20010;-73
2022/09/27 02:22:11;;;;;;;12.43;2.13;;;10.90;99.90;;;10.21;100.00;100644.06;5074754;23;20017;-72
2022/09/27 02:24:21;;;;;;;12.60;2.88;;;11.00;99.90;;;10.13;100.00;100643.97;5074127;23;20109;-73
2022/09/27 02:26:36;;;;;;;18.05;2.88;;;10.90;99.90;;;10.05;100.00;100651.84;5073051;23;20009;-72
2022/09/27 02:29:08;;;;;;;7.90;1.23;;;10.80;99.90;;;9.98;100.00;100649.81;5073161;23;20447;-72
2022/09/27 02:31:09;;;;;;;11.07;1.90;;;10.80;99.90;;;10.00;100.00;100658.38;5071945;23;20010;-72
2022/09/27 02:33:10;;;;;;;11.32;3.08;;;10.80;99.90;;;10.08;100.00;100654.16;5073163;23;20036;-72
2022/09/27 02:35:19;;;;;;;10.73;2.17;;;10.80;99.90;;;10.13;100.00;100652.75;5072896;23;20010;-73
2022/09/27 02:37:20;;;;;;;15.15;3.10;;;10.80;99.90;;;10.06;100.00;100640.31;5073221;23;20076;-72
2022/09/27 02:39:23;;;;;;;8.25;2.22;;;10.90;99.90;;;10.08;100.00;100644.44;5075018;23;20084;-72
2022/09/27 02:41:24;;;;;;;15.68;2.42;;;10.90;99.90;;;10.23;100.00;100647.38;5072799;23;20463;-73
2022/09/27 02:43:30;;;;;;;11.77;2.20;;;10.90;99.90;;;10.21;100.00;100639.63;5073472;23;20013;-73
2022/09/27 02:45:49;;;;;;;11.35;2.75;;;11.00;99.90;;;10.22;100.00;100654.44;5048777;23;20085;-72
2022/09/27 02:47:56;;;;;;;19.10;2.53;;;11.00;99.90;;;10.25;100.00;100650.66;5073181;23;20010;-72
2022/09/27 02:50:28;;;;;;;14.75;2.58;;;11.00;99.90;;;10.23;100.00;100660.53;5074470;23;20379;-73
2022/09/27 02:52:53;;;;;;;12.25;2.65;;;11.00;99.90;;;10.25;100.00;100654.13;5072666;23;20006;-73
2022/09/27 02:55:36;;;;;;;12.10;2.10;;;11.00;99.90;;;10.14;100.00;100650.94;5074481;23;20006;-73
2022/09/27 02:58:15;;;;;;;18.50;3.05;;;11.00;99.90;;;10.09;100.00;100645.28;5072711;23;20064;-73
2022/09/27 03:00:20;;;;;;;11.52;2.38;;;11.00;99.90;;;10.19;100.00;100656.56;5073116;23;20044;-73
2022/09/27 03:02:42;;;;;;;11.95;2.90;;;11.00;99.90;;;10.15;100.00;100660.50;5072935;23;20057;-72
2022/09/27 03:04:49;;;;;;;10.02;3.05;;;11.00;99.90;;;10.07;100.00;100658.59;5074370;23;20006;-73
2022/09/27 03:06:53;;;;;;;11.80;2.72;;;10.90;99.90;;;10.13;100.00;100655.38;5049196;23;20081;-72
2022/09/27 03:08:55;;;;;;;16.70;3.30;;;10.90;99.90;;;10.08;100.00;100639.19;5072773;23;20010;-72
2022/09/27 03:10:56;;;;;;;14.23;2.83;;;10.90;99.90;;;10.20;100.00;100637.13;5073053;23;20338;-73
2022/09/27 03:12:57;;;;;;;15.68;3.45;;;10.90;99.90;;;10.16;100.00;100630.50;5074225;23;20041;-73
2022/09/27 03:14:59;;;;;;;15.88;2.65;;;11.00;99.90;;;10.09;100.00;100640.00;5072884;23;20555;-73
2022/09/27 03:17:00;;;;;;;15.32;2.72;;;10.90;99.90;;;10.22;100.00;100643.06;5072715;23;20010;-73
2022/09/27 03:19:01;;;;;;;11.73;2.42;;;10.90;99.90;;;10.18;100.00;100632.03;5074588;23;20451;-73
2022/09/27 03:21:02;;;;;;;12.57;2.13;;;11.00;99.90;;;10.15;100.00;100629.72;5072660;23;20010;-73
2022/09/27 03:23:03;;;;;;;14.13;2.67;;;10.90;99.90;;;10.09;100.00;100632.09;5097503;23;20006;-73
2022/09/27 03:25:05;;;;;;;15.90;2.80;;;10.90;99.90;;;10.08;100.00;100630.44;5074241;23;20324;-73
2022/09/27 03:27:07;;;;;;;10.73;2.65;;;10.90;99.90;;;9.99;100.00;100629.56;5073871;23;20009;-73
2022/09/27 03:29:08;;;;;;;15.43;3.10;;;10.80;99.90;;;10.01;100.00;100641.59;5072689;23;20518;-73
2022/09/27 03:31:09;;;;;;;18.02;2.53;;;10.80;99.90;;;10.00;100.00;100645.19;5073453;23;20009;-73
2022/09/27 03:33:09;;;;;;;11.50;2.33;;;10.80;99.90;;;9.94;100.00;100630.03;5074178;23;20013;-73
2022/09/27 03:35:12;;;;;;;12.95;2.28;;;10.80;99.90;;;9.92;100.00;100639.88;5080500;23;20450;-73
2022/09/27 03:37:13;;;;;;;12.95;2.78;;;10.80;99.90;;;9.91;100.00;100635.63;5072667;23;20029;-73
2022/09/27 03:39:14;;;;;;;12.90;2.55;;;10.70;99.90;;;9.99;100.00;100632.19;5048686;23;20030;-73
2022/09/27 03:41:15;;;;;;;14.00;2.10;;;10.80;99.90;;;10.00;100.00;100629.38;5072584;23;20006;-73
2022/09/27 03:43:16;;;;;;;13.45;2.80;;;10.80;99.90;;;10.00;100.00;100639.94;5098258;23;20338;-73
2022/09/27 03:45:17;;;;;;;13.60;2.92;;;10.80;99.90;;;9.97;100.00;100639.44;5098448;23;20005;-73
2022/09/27 03:47:18;;;;;;;20.77;3.63;;;10.80;99.90;;;10.01;100.00;100636.31;5072644;23;20030;-72
2022/09/27 03:49:19;;;;;;;16.15;2.35;;;10.80;99.90;;;9.99;100.00;100629.56;5072533;23;20013;-73
2022/09/27 03:51:20;;;;;;;20.38;3.28;;;10.80;99.90;;;9.89;100.00;100637.56;5098482;23;20005;-73
2022/09/27 03:53:21;;;;;;;12.45;2.75;;;10.70;99.90;;;10.00;100.00;100632.03;5072574;23;20009;-73
2022/09/27 03:55:22;;;;;;;16.33;2.70;;;10.80;99.90;;;10.02;100.00;100623.97;5072631;23;20068;-73
2022/09/27 03:57:23;;;;;;;19.83;2.53;;;10.80;99.90;;;9.99;100.00;100613.75;5098113;23;20006;-73
2022/09/27 03:59:24;;;;;;;16.63;2.83;;;10.80;99.90;;;10.02;100.00;100624.81;5072584;23;20013;-73
2022/09/27 04:01:25;;;;;;;12.68;3.28;;;10.80;99.90;;;9.96;100.00;100614.06;5098658;23;20009;-73
2022/09/27 04:03:26;;;;;;;16.42;3.05;;;10.80;99.90;;;9.93;100.00;100625.75;5098538;23;20012;-73
2022/09/27 04:05:28;;;;;;;12.45;3.28;;;10.70;99.90;;;9.85;100.00;100615.16;5072409;23;20013;-72
2022/09/27 04:07:30;;;;;;;17.60;2.75;;;10.70;99.90;;;9.82;100.00;100618.09;5072460;23;20077;-73
2022/09/27 04:09:31;;;;;;;11.82;2.40;;;10.70;99.90;;;9.85;100.00;100625.69;5048128;23;20013;-73
2022/09/27 04:11:31;;;;;;;13.63;3.35;;;10.70;99.90;;;9.89;100.00;100629.66;5072051;23;20006;-73
2022/09/27 04:13:32;;;;;;;13.15;3.10;;;10.70;99.90;;;10.00;100.00;100642.56;5072542;23;20002;-73
2022/09/27 04:15:33;;;;;;;15.23;1.77;;;10.70;99.90;;;10.22;100.00;100636.00;5098332;23;20029;-73
2022/09/27 04:17:35;;;;;;;15.43;3.15;;;10.90;99.90;;;10.41;100.00;100643.69;5098326;23;20002;-73
2022/09/27 04:19:36;;;;;;;15.80;2.25;;;11.10;99.90;;;10.44;100.00;100645.19;5098340;23;20473;-73
2022/09/27 04:21:38;;;;;;;12.30;2.85;;;11.20;99.90;;;10.57;100.00;100638.47;5098332;23;20040;-73
2022/09/27 04:23:39;;;;;;;16.77;2.45;;;11.30;99.90;;;10.66;100.00;100633.25;5098301;23;20446;-73
2022/09/27 04:25:40;;;;;;;5.68;1.58;;;11.40;99.90;;;10.77;100.00;100625.03;5072374;23;20005;-73
2022/09/27 04:27:45;;;;;;;15.63;1.90;;;11.50;99.90;;;10.91;100.00;100638.44;5098076;23;20006;-73
2022/09/27 04:29:46;;;;;;;7.80;2.67;;;11.60;99.90;;;11.00;100.00;100640.13;5072540;23;20406;-73
2022/09/27 04:31:47;;;;;;;10.65;1.70;;;11.70;99.90;;;11.01;100.00;100635.66;5098244;23;19997;-73
2022/09/27 04:33:48;;;;;;;11.38;2.33;;;11.80;99.90;;;11.17;100.00;100626.97;5098284;23;20006;-73
2022/09/27 04:38:08;;;;;;;8.60;2.25;;;11.90;99.90;;;11.09;100.00;100596.06;5098082;23;20016;-73
2022/09/27 04:40:09;;;;;;;11.45;1.88;;;11.90;99.90;;;11.04;100.00;100607.13;5098426;23;20009;-73
2022/09/27 04:42:10;;;;;;;15.35;2.97;;;11.80;99.90;;;10.97;100.00;100600.00;5097890;23;20009;-73
2022/09/27 04:44:11;;;;;;;14.77;3.05;;;11.80;99.90;;;10.91;100.00;100616.50;5098327;23;20006;-73
2022/09/27 04:46:12;;;;;;;12.38;2.28;;;11.70;99.90;;;10.88;100.00;100630.84;5098230;23;20443;-73
2022/09/27 04:48:13;;;;;;;8.60;1.65;;;11.70;99.90;;;10.89;100.00;100636.94;5099638;23;20060;-73
2022/09/27 04:50:16;;;;;;;11.27;2.35;;;11.70;99.90;;;10.94;100.00;100634.66;5099839;23;20006;-73
2022/09/27 04:52:17;;;;;;;13.52;1.95;;;11.70;99.90;;;11.07;100.00;100630.56;5074213;23;20467;-73
2022/09/27 04:54:18;;;;;;;8.20;2.13;;;11.80;99.90;;;11.16;100.00;100631.41;5099798;23;20060;-73
2022/09/27 04:56:19;;;;;;;9.30;2.28;;;11.90;99.90;;;11.23;100.00;100632.38;5099382;23;20009;-73
2022/09/27 04:58:21;;;;;;;10.80;2.08;;;12.00;99.90;;;11.25;100.00;100634.88;5099744;23;20097;-73
2022/09/27 05:00:22;;;;;;;10.18;1.60;;;12.00;99.90;;;11.25;100.00;100640.16;5099940;23;20002;-73
2022/09/27 05:02:23;;;;;;;6.47;1.70;;;12.00;99.90;;;11.33;100.00;100633.06;5099732;23;20009;-73
2022/09/27 05:04:24;;;;;;;12.90;2.55;;;12.10;99.90;;;11.35;100.00;100630.28;5073840;23;20343;-73
2022/09/27 05:06:25;;;;;;;6.85;2.30;;;12.10;99.90;;;11.40;100.00;100642.00;5099733;23;20002;-73
2022/09/27 05:08:26;;;;;;;11.35;2.22;;;12.10;99.90;;;11.34;100.00;100639.19;5100188;23;20052;-73
2022/09/27 05:10:27;;;;;;;15.82;2.05;;;12.10;99.90;;;11.33;100.00;100642.81;5073661;23;20005;-73
2022/09/27 05:12:28;;;;;;;18.67;2.45;;;12.20;99.90;;;11.37;100.00;100642.34;5099395;23;20060;-73
2022/09/27 05:14:29;;;;;;;9.05;2.15;;;12.20;99.90;;;11.43;100.00;100640.84;5073614;23;20006;-73
2022/09/27 05:16:31;;;;;;;16.10;2.25;;;12.20;99.90;;;11.46;100.00;100638.72;5073667;23;20029;-73
2022/09/27 05:18:33;;;;;;;11.38;2.13;;;12.20;99.90;;;11.46;100.00;100643.16;5073597;23;20020;-73
2022/09/27 05:20:37;;;;;;;13.27;3.40;;;12.20;99.90;;;11.42;100.00;100634.75;5099682;23;20013;-73
2022/09/27 05:22:39;;;;;;;6.50;1.85;;;12.20;99.90;;;11.51;100.00;100636.41;5073677;23;20029;-73
2022/09/27 05:24:41;;;;;;;7.93;2.90;;;12.30;99.90;;;11.53;100.00;100634.41;5099716;23;20078;-73
2022/09/27 05:26:42;;;;;;;6.20;2.03;;;12.30;99.90;;;11.50;100.00;100623.34;5099256;23;20009;-73
2022/09/27 05:28:44;;;;;;;10.40;2.60;;;12.30;99.90;;;11.50;100.00;100623.34;5099437;23;20010;-73
2022/09/27 05:30:45;;;;;;;9.80;1.70;;;12.30;99.90;;;11.56;100.00;100626.16;5073809;23;20006;-73
2022/09/27 05:32:49;;;;;;;11.35;2.28;;;12.30;99.90;;;11.62;100.00;100628.13;5099686;23;20005;-73
2022/09/27 05:34:52;;;;;;;10.52;2.47;;;12.30;99.90;;;11.62;100.00;100627.31;5099344;23;20002;-73
2022/09/27 05:36:53;;;;;;;9.02;1.65;;;12.40;99.90;;;11.67;100.00;100617.09;5073232;23;20092;-73
2022/09/27 05:38:54;;;;;;;10.88;1.83;;;12.40;99.90;;;11.60;100.00;100611.63;5099982;23;20005;-73
2022/09/27 05:40:55;;;;;;;9.45;1.55;;;12.40;99.90;;;11.55;100.00;100623.69;5073593;23;20010;-73
2022/09/27 05:42:56;;;;;;;9.43;2.17;;;12.40;99.90;;;11.56;100.00;100638.53;5099100;23;20009;-73
2022/09/27 05:44:57;;;;;;;9.80;2.60;;;12.40;99.90;;;11.55;100.00;100636.91;5099381;23;20005;-73
2022/09/27 05:47:05;;;;;;;8.90;1.65;;;12.40;99.90;;;11.60;100.00;100642.50;5099136;23;20016;-73
2022/09/27 05:49:06;;;;;;;10.00;1.90;;;12.40;99.90;;;11.66;100.00;100640.03;5099462;23;20013;-73
2022/09/27 05:51:07;;;;;;;10.10;1.88;;;12.40;99.90;;;11.67;100.00;100635.59;5073154;23;20002;-73
2022/09/27 05:53:09;;;;;;;14.75;2.55;;;12.50;99.90;;;11.60;100.00;100626.66;5097562;23;20008;-73
2022/09/27 05:55:10;;;;;;;9.30;1.77;;;12.50;99.90;;;11.65;100.00;100634.91;5099467;23;20001;-73
2022/09/27 05:57:11;;;;;;;5.03;1.70;;;12.50;99.90;;;11.59;100.00;100628.47;5098918;23;20001;-73
2022/09/27 05:59:12;;;;;;;11.10;2.42;;;12.40;99.90;;;11.60;100.00;100634.56;5072856;23;20339;-73
2022/09/27 06:01:13;;;;;;;9.25;2.00;;;12.40;99.90;;;11.57;100.00;100624.34;5099134;23;20005;-73
2022/09/27 06:03:13;;;;;;;9.43;1.90;;;12.40;99.90;;;11.58;100.00;100628.66;5048861;23;20011;-73
2022/09/27 06:05:14;;;;;;;5.25;1.35;;;12.40;99.90;;;11.55;100.00;100623.69;5099053;23;20461;-73
2022/09/27 06:07:15;;;;;;;9.55;2.50;;;12.40;99.90;;;11.54;100.00;100619.38;5099086;23;20009;-73
2022/09/27 06:09:17;;;;;;;10.40;1.98;;;12.40;99.90;;;11.45;100.00;100628.28;5098916;23;20036;-73
2022/09/27 06:11:18;;;;;;;8.65;1.10;;;12.30;99.90;;;11.39;100.00;100619.22;5098901;23;20077;-73
2022/09/27 06:13:18;;;;;;;5.78;1.13;;;12.20;99.90;;;11.32;100.00;100627.97;5073342;23;20002;-73
2022/09/27 06:15:20;;;;;;;11.98;1.73;;;12.10;99.90;;;11.31;100.00;100628.94;5099275;23;20009;-73
2022/09/27 06:17:21;;;;;;;8.13;1.38;;;12.10;99.90;;;11.19;100.00;100619.69;5073121;23;20009;-73
2022/09/27 06:19:21;;;;;;;13.35;1.92;;;12.00;99.90;;;11.11;100.00;100626.59;5099013;23;20006;-73
2022/09/27 06:21:23;;;;;;;5.93;1.80;;;12.00;99.90;;;11.03;100.00;100621.31;5099117;23;20012;-73
2022/09/27 06:23:24;;;;;;;11.02;2.17;;;11.90;99.90;;;11.05;100.00;100637.81;5099119;23;20016;-73
2022/09/27 06:25:25;;;;;;;10.50;2.05;;;11.90;99.90;;;11.04;100.00;100630.06;5098953;23;20010;-73
2022/09/27 06:27:26;;;;;;;5.00;1.30;;;11.80;99.90;;;11.07;100.00;100629.75;5072819;23;20010;-73
2022/09/27 06:29:28;;;;;;;14.50;2.85;;;11.80;99.90;;;10.99;100.00;100641.09;5073331;23;20014;-73
2022/09/27 06:31:29;;;;;;;11.32;1.58;;;11.80;99.90;;;10.93;100.00;100638.28;5099076;23;20008;-73
2022/09/27 06:33:32;;;;;;;7.18;2.03;;;11.70;99.90;;;10.91;100.00;100638.44;5098834;23;20005;-73
2022/09/27 06:35:35;;;;;;;9.45;1.67;;;11.70;99.90;;;10.89;100.00;100636.94;5098424;23;20504;-73
2022/09/27 06:37:35;;;;;;;11.88;2.22;;;11.60;99.90;;;10.92;100.00;100636.63;5098834;23;20009;-73
2022/09/27 06:39:36;;;;;;;11.52;2.45;;;11.60;99.90;;;10.95;100.00;100637.13;5072822;23;20014;-73
2022/09/27 06:41:38;;;;;;;9.48;1.58;;;11.70;99.90;;;11.00;100.00;100632.19;5096972;23;20421;-73
2022/09/27 06:43:39;;;;;;;8.70;1.70;;;11.70;99.90;;;10.92;100.00;100629.53;5073120;23;20006;-73
2022/09/27 06:45:40;;;;;;;6.38;2.10;;;11.70;99.90;;;10.95;100.00;100631.88;5098778;23;20430;-72
2022/09/27 06:47:41;;;;;;;9.98;2.05;;;11.70;99.90;;;10.91;100.00;100627.06;5099103;23;20012;-73
2022/09/27 06:49:42;;;;;;;11.90;2.35;;;11.70;99.90;;;10.87;100.00;100621.25;5098766;23;20016;-72
2022/09/27 06:51:43;;;;;;;12.27;2.58;;;11.70;99.90;;;10.98;100.00;100622.78;5099043;23;20036;-72
2022/09/27 06:53:43;;;;;;;9.70;1.75;;;11.70;99.90;;;11.15;100.00;100628.91;5098894;23;20006;-72
2022/09/27 06:55:44;;;;;;;13.00;2.33;;;11.80;99.90;;;11.18;100.00;100628.59;5098867;23;20094;-72
2022/09/27 07:00:25;;;;;;;8.70;1.75;;;12.00;99.90;;;11.40;100.00;100622.69;5076633;23;20045;-72
2022/09/27 07:02:26;;;;;;;12.27;2.30;;;12.10;99.90;;;11.61;100.00;100633.59;5052290;23;20017;-72
2022/09/27 07:04:27;;;;;;;16.38;2.58;;;12.30;99.90;;;11.88;100.00;100633.28;5098964;23;20005;-72
2022/09/27 07:06:30;;;;;;;9.57;1.65;;;12.50;99.90;;;12.04;100.00;100633.25;5098841;23;20009;-72
2022/09/27 07:08:33;;;;;;;8.23;1.90;;;12.70;99.90;;;12.15;100.00;100635.56;5098687;23;20342;-72
2022/09/27 07:10:36;;;;;;;15.27;2.23;;;12.80;99.90;;;12.20;100.00;100633.22;5072672;23;20037;-72
2022/09/27 07:12:37;;;;;;;8.95;2.10;;;12.90;99.90;;;12.38;100.00;100633.00;5072761;23;20230;-72
2022/09/27 07:14:38;;;;;;;9.18;1.67;;;13.10;99.90;;;12.42;100.00;100636.16;5072411;23;20041;-74
2022/09/27 07:16:39;;;;;;;10.15;1.95;;;13.20;99.90;;;12.47;100.00;100642.56;5097337;23;20005;-74
2022/09/27 07:18:41;;;;;;;8.52;2.05;;;13.20;99.90;;;12.53;100.00;100641.88;5098514;23;20009;-74
2022/09/27 07:20:42;;;;;;;7.38;2.22;;;13.30;99.90;;;12.49;100.00;100647.69;5098409;23;20009;-74
2022/09/27 07:22:44;;;;;;;14.95;2.10;;;13.30;99.90;;;12.57;100.00;100655.59;5098501;23;20048;-74
2022/09/27 07:24:44;;;;;;;15.25;3.15;;;13.30;99.90;;;12.55;100.00;100661.06;5098444;23;20009;-73
2022/09/27 07:26:47;;;;;;;11.63;2.58;;;13.40;99.90;;;12.69;100.00;100656.88;5072317;23;20493;-73
2022/09/27 07:28:48;;;;;;;11.15;2.67;;;13.40;99.90;;;12.74;100.00;100654.53;5098275;23;20018;-73
2022/09/27 07:30:53;;;;;;;12.82;2.33;;;13.40;99.90;;;12.70;100.00;100659.34;5072541;23;20347;-73
2022/09/27 07:32:59;;;;;;;13.23;2.47;;;13.50;99.90;;;12.79;100.00;100662.78;5073805;23;20034;-74
2022/09/27 07:35:00;;;;;;;12.52;3.05;;;13.50;99.90;;;12.81;100.00;100671.41;5098165;23;20009;-74
2022/09/27 07:37:04;;;;;;;11.52;2.53;;;13.60;99.90;;;12.86;100.00;100662.91;5098355;23;20005;-74
2022/09/27 07:39:05;;;;;;;10.40;2.00;;;13.60;99.90;;;12.90;100.00;100678.31;5073148;23;20006;-74
2022/09/27 07:41:13;;;;;;;16.83;2.83;;;13.70;99.90;;;12.83;100.00;100669.41;5047955;23;20026;-72
2022/09/27 07:43:14;;;;;;;10.75;2.53;;;13.70;99.90;;;12.79;100.00;100670.72;5072692;23;20037;-72
2022/09/27 07:45:16;;;;;;;9.98;1.67;;;13.70;99.90;;;12.89;100.00;100660.75;5072663;23;20010;-72
2022/09/27 07:47:18;;;;;;;12.15;2.75;;;13.70;99.90;;;13.05;100.00;100673.91;5072694;23;20006;-72
2022/09/27 07:49:19;;;;;;;15.07;2.15;;;13.80;99.90;;;13.08;100.00;100673.59;5072752;23;20033;-72
2022/09/27 07:51:20;;;;;;;14.13;2.90;;;13.80;99.90;;;13.13;100.00;100668.63;5072303;23;20002;-72
2022/09/27 07:53:22;;;;;;;9.52;2.33;;;13.90;99.90;;;13.19;100.00;100675.88;5098413;23;20001;-72
2022/09/27 07:55:23;;;;;;;11.50;2.42;;;13.90;99.90;;;13.30;99.86;100670.16;5073093;23;20082;-72
2022/09/27 07:57:24;;;;;;;12.68;3.33;;;14.00;99.90;;;13.36;98.76;100675.75;5072443;23;20058;-72
2022/09/27 07:59:25;;;;;;;11.43;2.17;;;14.10;99.90;;;13.43;99.13;100685.50;5098407;23;20048;-72
2022/09/27 08:01:26;;;;;;;13.60;2.78;;;14.20;99.90;;;13.53;98.60;100682.63;5098429;23;20006;-72
2022/09/27 08:03:27;;;;;;;9.40;2.22;;;14.20;99.90;;;13.63;97.21;100685.84;5098382;23;20013;-72
2022/09/27 08:05:28;;;;;;;15.63;2.97;;;14.30;99.90;;;13.66;97.53;100680.19;5072537;23;20014;-73
2022/09/27 08:07:30;;;;;;;11.77;2.20;;;14.40;99.90;;;13.59;96.28;100687.22;5072547;23;20069;-72
2022/09/27 08:09:31;;;;;;;15.43;2.53;;;14.40;99.90;;;13.64;97.35;100680.38;5048309;23;20010;-73
2022/09/27 08:11:31;;;;;;;9.90;2.55;;;14.50;99.90;;;13.71;96.29;100688.41;5098410;23;20049;-73
2022/09/27 08:13:32;;;;;;;13.88;3.58;;;14.40;99.90;;;13.64;95.83;100696.28;5098484;23;20008;-72
2022/09/27 08:15:37;;;;;;;14.63;2.58;;;14.40;99.90;;;13.37;97.48;100680.88;5098569;23;20001;-72
2022/09/27 08:17:38;;;;;;;9.50;2.38;;;14.30;99.90;;;13.06;98.58;100688.81;5098419;23;20052;-72
2022/09/27 08:19:40;;;;;;;10.90;2.47;;;14.10;99.90;;;13.03;99.72;100683.84;5047864;23;20373;-73
2022/09/27 08:21:40;;;;;;;14.13;3.10;;;14.00;99.90;;;13.07;100.00;100684.34;5098505;23;20039;-74
2022/09/27 08:23:41;;;;;;;21.88;4.25;;;13.90;99.90;;;13.06;100.00;100693.25;5073037;23;20013;-74
2022/09/27 08:25:43;;;;;;;13.70;3.45;;;13.90;99.90;;;13.01;100.00;100688.50;5099751;23;20431;-74
2022/09/27 08:27:53;;;;;;;18.95;3.25;;;13.90;99.90;;;13.07;99.94;100690.47;5073819;23;20005;-74
2022/09/27 08:29:54;;;;;;;16.17;3.42;;;13.90;99.90;;;13.17;98.95;100685.78;5075940;23;20009;-74
2022/09/27 08:31:55;;;;;;;19.27;3.25;;;13.90;99.90;;;13.29;99.05;100679.09;5100207;23;20315;-74
2022/09/27 08:33:56;;;;;;;25.88;4.10;;;14.00;99.90;;;13.39;96.03;100686.00;5074156;23;20009;-74
2022/09/27 08:35:57;;;;;;;18.58;3.75;;;14.10;99.90;;;13.39;95.71;100688.66;5073921;23;20089;-74
2022/09/27 08:38:01;;;;;;;19.38;4.03;;;14.10;99.90;;;13.39;95.54;100684.19;5074081;23;20505;-74